sensor_id;sensor_type;location;lat;lon;timestamp;P1;durP1;ratioP1;P2;durP2;ratioP2
12383;SDS011;6256;63.808;20.336;2023-09-12T00:01:40;17.15;;;11.45;;
12383;SDS011;6256;63.808;20.336;2023-09-12T00:04:06;16.65;;;9.70;;
12383;SDS011;6256;63.808;20.336;2023-09-12T00:06:32;15.52;;;10.60;;
12383;SDS011;6256;63.808;20.336;2023-09-12T00:08:57;14.40;;;10.48;;
12383;SDS011;6256;63.808;20.336;2023-09-12T00:11:23;13.65;;;9.82;;
12383;SDS011;6256;63.808;20.336;2023-09-12T00:13:50;18.42;;;11.35;;
12383;SDS011;6256;63.808;20.336;2023-09-12T00:16:17;13.63;;;9.27;;
12383;SDS011;6256;63.808;20.336;2023-09-12T00:18:42;15.18;;;10.65;;
12383;SDS011;6256;63.808;20.336;2023-09-12T00:21:08;14.10;;;9.63;;
12383;SDS011;6256;63.808;20.336;2023-09-12T00:23:34;13.02;;;10.52;;
12383;SDS011;6256;63.808;20.336;2023-09-12T00:26:00;13.88;;;10.07;;
12383;SDS011;6256;63.808;20.336;2023-09-12T00:28:25;15.43;;;10.25;;
12383;SDS011;6256;63.808;20.336;2023-09-12T00:30:52;14.38;;;10.20;;
12383;SDS011;6256;63.808;20.336;2023-09-12T00:33:17;19.10;;;10.90;;
12383;SDS011;6256;63.808;20.336;2023-09-12T00:35:43;13.85;;;9.95;;
12383;SDS011;6256;63.808;20.336;2023-09-12T00:38:10;13.68;;;9.80;;
12383;SDS011;6256;63.808;20.336;2023-09-12T00:40:36;14.30;;;9.13;;
12383;SDS011;6256;63.808;20.336;2023-09-12T00:43:05;14.95;;;10.02;;
12383;SDS011;6256;63.808;20.336;2023-09-12T00:45:30;13.40;;;9.30;;
12383;SDS011;6256;63.808;20.336;2023-09-12T00:47:57;14.88;;;9.80;;
12383;SDS011;6256;63.808;20.336;2023-09-12T00:50:25;14.80;;;10.27;;
12383;SDS011;6256;63.808;20.336;2023-09-12T00:52:52;16.08;;;10.57;;
12383;SDS011;6256;63.808;20.336;2023-09-12T00:55:19;15.05;;;8.82;;
12383;SDS011;6256;63.808;20.336;2023-09-12T00:57:45;14.40;;;9.93;;
12383;SDS011;6256;63.808;20.336;2023-09-12T01:00:11;14.88;;;9.68;;
12383;SDS011;6256;63.808;20.336;2023-09-12T01:02:42;14.48;;;9.80;;
12383;SDS011;6256;63.808;20.336;2023-09-12T01:05:09;17.63;;;10.95;;
12383;SDS011;6256;63.808;20.336;2023-09-12T01:07:37;14.55;;;9.30;;
12383;SDS011;6256;63.808;20.336;2023-09-12T01:10:03;16.55;;;10.30;;
12383;SDS011;6256;63.808;20.336;2023-09-12T01:12:30;17.35;;;10.10;;
12383;SDS011;6256;63.808;20.336;2023-09-12T01:14:55;16.00;;;9.70;;
12383;SDS011;6256;63.808;20.336;2023-09-12T01:17:22;14.18;;;9.13;;
12383;SDS011;6256;63.808;20.336;2023-09-12T01:19:48;14.85;;;9.75;;
12383;SDS011;6256;63.808;20.336;2023-09-12T01:25:17;15.98;;;9.65;;
12383;SDS011;6256;63.808;20.336;2023-09-12T01:28:16;17.55;;;10.15;;
12383;SDS011;6256;63.808;20.336;2023-09-12T01:30:42;16.98;;;9.32;;
12383;SDS011;6256;63.808;20.336;2023-09-12T01:33:11;13.00;;;8.70;;
12383;SDS011;6256;63.808;20.336;2023-09-12T01:35:37;12.63;;;8.85;;
12383;SDS011;6256;63.808;20.336;2023-09-12T01:38:03;12.05;;;8.40;;
12383;SDS011;6256;63.808;20.336;2023-09-12T01:40:34;14.88;;;9.68;;
12383;SDS011;6256;63.808;20.336;2023-09-12T01:43:05;16.90;;;9.40;;
12383;SDS011;6256;63.808;20.336;2023-09-12T01:45:32;15.35;;;8.60;;
12383;SDS011;6256;63.808;20.336;2023-09-12T01:47:58;14.13;;;9.77;;
12383;SDS011;6256;63.808;20.336;2023-09-12T01:50:25;14.57;;;8.43;;
12383;SDS011;6256;63.808;20.336;2023-09-12T01:52:56;14.60;;;8.35;;
12383;SDS011;6256;63.808;20.336;2023-09-12T01:55:22;15.18;;;8.90;;
12383;SDS011;6256;63.808;20.336;2023-09-12T01:57:48;15.00;;;8.93;;
12383;SDS011;6256;63.808;20.336;2023-09-12T02:00:14;15.25;;;9.05;;
12383;SDS011;6256;63.808;20.336;2023-09-12T02:02:44;14.27;;;8.38;;
12383;SDS011;6256;63.808;20.336;2023-09-12T02:05:19;14.65;;;8.35;;
12383;SDS011;6256;63.808;20.336;2023-09-12T02:07:47;15.05;;;8.93;;
12383;SDS011;6256;63.808;20.336;2023-09-12T02:10:13;12.23;;;8.20;;
12383;SDS011;6256;63.808;20.336;2023-09-12T02:12:39;16.85;;;9.23;;
12383;SDS011;6256;63.808;20.336;2023-09-12T02:15:06;16.55;;;9.25;;
12383;SDS011;6256;63.808;20.336;2023-09-12T02:17:32;13.00;;;8.75;;
12383;SDS011;6256;63.808;20.336;2023-09-12T02:19:58;13.70;;;7.65;;
12383;SDS011;6256;63.808;20.336;2023-09-12T02:22:24;15.38;;;8.75;;
12383;SDS011;6256;63.808;20.336;2023-09-12T02:24:49;13.13;;;7.55;;
12383;SDS011;6256;63.808;20.336;2023-09-12T02:27:15;12.48;;;7.82;;
12383;SDS011;6256;63.808;20.336;2023-09-12T02:29:41;13.27;;;8.13;;
12383;SDS011;6256;63.808;20.336;2023-09-12T02:32:07;9.25;;;6.88;;
12383;SDS011;6256;63.808;20.336;2023-09-12T02:34:34;11.07;;;7.53;;
12383;SDS011;6256;63.808;20.336;2023-09-12T02:36:59;12.63;;;7.20;;
12383;SDS011;6256;63.808;20.336;2023-09-12T02:39:25;11.38;;;7.18;;
12383;SDS011;6256;63.808;20.336;2023-09-12T02:41:51;12.18;;;7.32;;
12383;SDS011;6256;63.808;20.336;2023-09-12T02:44:17;10.23;;;7.18;;
12383;SDS011;6256;63.808;20.336;2023-09-12T02:46:42;12.80;;;7.80;;
12383;SDS011;6256;63.808;20.336;2023-09-12T02:49:08;12.85;;;7.13;;
12383;SDS011;6256;63.808;20.336;2023-09-12T02:51:37;13.05;;;7.38;;
12383;SDS011;6256;63.808;20.336;2023-09-12T02:54:03;12.27;;;7.35;;
12383;SDS011;6256;63.808;20.336;2023-09-12T02:56:29;10.20;;;7.50;;
12383;SDS011;6256;63.808;20.336;2023-09-12T02:58:55;9.95;;;6.82;;
12383;SDS011;6256;63.808;20.336;2023-09-12T03:01:21;11.25;;;7.50;;
12383;SDS011;6256;63.808;20.336;2023-09-12T03:03:47;9.85;;;7.03;;
12383;SDS011;6256;63.808;20.336;2023-09-12T03:06:14;12.50;;;6.82;;
12383;SDS011;6256;63.808;20.336;2023-09-12T03:08:40;12.40;;;7.28;;
12383;SDS011;6256;63.808;20.336;2023-09-12T03:11:06;10.07;;;6.63;;
12383;SDS011;6256;63.808;20.336;2023-09-12T03:13:33;11.23;;;7.38;;
12383;SDS011;6256;63.808;20.336;2023-09-12T03:15:59;9.95;;;6.80;;
12383;SDS011;6256;63.808;20.336;2023-09-12T03:18:25;11.27;;;7.22;;
12383;SDS011;6256;63.808;20.336;2023-09-12T03:20:51;10.13;;;7.10;;
12383;SDS011;6256;63.808;20.336;2023-09-12T03:23:17;11.45;;;6.65;;
12383;SDS011;6256;63.808;20.336;2023-09-12T03:25:44;11.35;;;7.43;;
12383;SDS011;6256;63.808;20.336;2023-09-12T03:28:10;11.32;;;6.47;;
12383;SDS011;6256;63.808;20.336;2023-09-12T03:30:36;13.00;;;7.03;;
12383;SDS011;6256;63.808;20.336;2023-09-12T03:33:03;11.48;;;6.78;;
12383;SDS011;6256;63.808;20.336;2023-09-12T03:35:30;10.88;;;6.32;;
12383;SDS011;6256;63.808;20.336;2023-09-12T03:37:57;12.68;;;6.38;;
12383;SDS011;6256;63.808;20.336;2023-09-12T03:40:23;11.13;;;7.40;;
12383;SDS011;6256;63.808;20.336;2023-09-12T03:42:49;15.18;;;7.18;;
12383;SDS011;6256;63.808;20.336;2023-09-12T03:45:14;11.60;;;6.55;;
12383;SDS011;6256;63.808;20.336;2023-09-12T03:47:40;10.95;;;7.40;;
12383;SDS011;6256;63.808;20.336;2023-09-12T03:50:06;11.70;;;6.88;;
12383;SDS011;6256;63.808;20.336;2023-09-12T03:52:34;12.60;;;7.15;;
12383;SDS011;6256;63.808;20.336;2023-09-12T03:55:01;10.40;;;7.43;;
12383;SDS011;6256;63.808;20.336;2023-09-12T03:57:27;12.60;;;7.13;;
12383;SDS011;6256;63.808;20.336;2023-09-12T03:59:53;8.70;;;6.43;;
12383;SDS011;6256;63.808;20.336;2023-09-12T04:02:18;9.93;;;6.55;;
12383;SDS011;6256;63.808;20.336;2023-09-12T04:04:44;12.80;;;6.53;;
12383;SDS011;6256;63.808;20.336;2023-09-12T04:07:10;11.45;;;6.82;;
12383;SDS011;6256;63.808;20.336;2023-09-12T04:09:35;11.95;;;7.65;;
12383;SDS011;6256;63.808;20.336;2023-09-12T04:12:01;14.88;;;8.75;;
12383;SDS011;6256;63.808;20.336;2023-09-12T04:14:27;10.38;;;7.22;;
12383;SDS011;6256;63.808;20.336;2023-09-12T04:16:53;15.52;;;7.47;;
12383;SDS011;6256;63.808;20.336;2023-09-12T04:19:18;13.82;;;7.50;;
12383;SDS011;6256;63.808;20.336;2023-09-12T04:21:44;11.98;;;7.53;;
12383;SDS011;6256;63.808;20.336;2023-09-12T04:24:10;13.45;;;7.85;;
12383;SDS011;6256;63.808;20.336;2023-09-12T04:26:36;12.32;;;7.35;;
12383;SDS011;6256;63.808;20.336;2023-09-12T04:29:01;13.25;;;8.13;;
12383;SDS011;6256;63.808;20.336;2023-09-12T04:31:27;12.93;;;7.80;;
12383;SDS011;6256;63.808;20.336;2023-09-12T04:33:54;9.40;;;6.78;;
12383;SDS011;6256;63.808;20.336;2023-09-12T04:36:20;15.55;;;8.25;;
12383;SDS011;6256;63.808;20.336;2023-09-12T04:38:46;13.15;;;8.52;;
12383;SDS011;6256;63.808;20.336;2023-09-12T04:41:12;14.75;;;8.10;;
12383;SDS011;6256;63.808;20.336;2023-09-12T04:43:42;15.48;;;8.85;;
12383;SDS011;6256;63.808;20.336;2023-09-12T04:46:09;14.38;;;8.45;;
12383;SDS011;6256;63.808;20.336;2023-09-12T04:48:35;14.85;;;8.13;;
12383;SDS011;6256;63.808;20.336;2023-09-12T04:51:01;12.60;;;8.98;;
12383;SDS011;6256;63.808;20.336;2023-09-12T04:53:27;12.13;;;7.60;;
12383;SDS011;6256;63.808;20.336;2023-09-12T04:56:00;11.00;;;8.27;;
12383;SDS011;6256;63.808;20.336;2023-09-12T04:58:29;14.88;;;8.05;;
12383;SDS011;6256;63.808;20.336;2023-09-12T05:00:55;12.18;;;8.00;;
12383;SDS011;6256;63.808;20.336;2023-09-12T05:03:21;12.23;;;8.50;;
12383;SDS011;6256;63.808;20.336;2023-09-12T05:05:48;14.70;;;8.73;;
12383;SDS011;6256;63.808;20.336;2023-09-12T05:08:17;13.27;;;8.02;;
12383;SDS011;6256;63.808;20.336;2023-09-12T05:10:43;12.02;;;8.57;;
12383;SDS011;6256;63.808;20.336;2023-09-12T05:13:09;17.35;;;8.98;;
12383;SDS011;6256;63.808;20.336;2023-09-12T05:15:35;14.27;;;9.23;;
12383;SDS011;6256;63.808;20.336;2023-09-12T05:18:04;14.57;;;9.73;;
12383;SDS011;6256;63.808;20.336;2023-09-12T05:20:30;13.63;;;8.70;;
12383;SDS011;6256;63.808;20.336;2023-09-12T05:22:56;16.80;;;9.70;;
12383;SDS011;6256;63.808;20.336;2023-09-12T05:25:22;18.38;;;9.30;;
12383;SDS011;6256;63.808;20.336;2023-09-12T05:27:48;11.75;;;8.57;;
12383;SDS011;6256;63.808;20.336;2023-09-12T05:30:13;15.68;;;9.43;;
12383;SDS011;6256;63.808;20.336;2023-09-12T05:32:40;16.17;;;10.30;;
12383;SDS011;6256;63.808;20.336;2023-09-12T05:35:06;15.13;;;9.18;;
12383;SDS011;6256;63.808;20.336;2023-09-12T05:37:32;13.65;;;9.45;;
12383;SDS011;6256;63.808;20.336;2023-09-12T05:39:58;15.90;;;9.48;;
12383;SDS011;6256;63.808;20.336;2023-09-12T05:42:24;14.82;;;9.75;;
12383;SDS011;6256;63.808;20.336;2023-09-12T05:44:50;17.85;;;10.18;;
12383;SDS011;6256;63.808;20.336;2023-09-12T05:47:19;13.15;;;9.50;;
12383;SDS011;6256;63.808;20.336;2023-09-12T05:49:45;14.63;;;9.07;;
12383;SDS011;6256;63.808;20.336;2023-09-12T05:52:11;15.77;;;9.77;;
12383;SDS011;6256;63.808;20.336;2023-09-12T05:54:37;18.27;;;10.05;;
12383;SDS011;6256;63.808;20.336;2023-09-12T05:57:03;16.75;;;9.38;;
12383;SDS011;6256;63.808;20.336;2023-09-12T05:59:30;13.23;;;9.25;;
12383;SDS011;6256;63.808;20.336;2023-09-12T06:01:55;14.80;;;8.48;;
12383;SDS011;6256;63.808;20.336;2023-09-12T06:04:21;14.85;;;8.43;;
12383;SDS011;6256;63.808;20.336;2023-09-12T06:06:47;18.30;;;10.38;;
12383;SDS011;6256;63.808;20.336;2023-09-12T06:09:13;16.48;;;9.05;;
12383;SDS011;6256;63.808;20.336;2023-09-12T06:11:38;16.77;;;9.63;;
12383;SDS011;6256;63.808;20.336;2023-09-12T06:14:04;15.10;;;9.60;;
12383;SDS011;6256;63.808;20.336;2023-09-12T06:16:30;14.75;;;9.77;;
12383;SDS011;6256;63.808;20.336;2023-09-12T06:18:58;18.67;;;10.32;;
12383;SDS011;6256;63.808;20.336;2023-09-12T06:21:24;18.25;;;10.40;;
12383;SDS011;6256;63.808;20.336;2023-09-12T06:23:55;16.60;;;11.15;;
12383;SDS011;6256;63.808;20.336;2023-09-12T06:26:42;12.90;;;10.32;;
12383;SDS011;6256;63.808;20.336;2023-09-12T06:29:09;15.02;;;9.23;;
12383;SDS011;6256;63.808;20.336;2023-09-12T06:31:35;15.55;;;9.63;;
12383;SDS011;6256;63.808;20.336;2023-09-12T06:34:01;14.43;;;9.45;;
12383;SDS011;6256;63.808;20.336;2023-09-12T06:36:27;14.07;;;9.15;;
12383;SDS011;6256;63.808;20.336;2023-09-12T06:38:54;15.30;;;9.65;;
12383;SDS011;6256;63.808;20.336;2023-09-12T06:41:21;13.18;;;8.90;;
12383;SDS011;6256;63.808;20.336;2023-09-12T06:43:47;16.30;;;10.73;;
12383;SDS011;6256;63.808;20.336;2023-09-12T06:46:12;17.23;;;9.38;;
12383;SDS011;6256;63.808;20.336;2023-09-12T06:48:39;14.43;;;9.70;;
12383;SDS011;6256;63.808;20.336;2023-09-12T06:51:05;15.40;;;9.73;;
12383;SDS011;6256;63.808;20.336;2023-09-12T06:53:34;14.13;;;9.05;;
12383;SDS011;6256;63.808;20.336;2023-09-12T06:56:02;15.82;;;9.30;;
12383;SDS011;6256;63.808;20.336;2023-09-12T06:58:31;19.25;;;9.80;;
12383;SDS011;6256;63.808;20.336;2023-09-12T07:01:06;15.40;;;9.85;;
12383;SDS011;6256;63.808;20.336;2023-09-12T07:03:32;13.75;;;9.40;;
12383;SDS011;6256;63.808;20.336;2023-09-12T07:05:59;15.45;;;9.52;;
12383;SDS011;6256;63.808;20.336;2023-09-12T07:08:24;15.75;;;9.82;;
12383;SDS011;6256;63.808;20.336;2023-09-12T07:10:50;13.18;;;8.85;;
12383;SDS011;6256;63.808;20.336;2023-09-12T07:13:19;14.82;;;9.07;;
12383;SDS011;6256;63.808;20.336;2023-09-12T07:15:46;14.48;;;9.70;;
12383;SDS011;6256;63.808;20.336;2023-09-12T07:18:12;19.25;;;8.80;;
12383;SDS011;6256;63.808;20.336;2023-09-12T07:20:39;16.52;;;8.85;;
12383;SDS011;6256;63.808;20.336;2023-09-12T07:23:05;16.35;;;9.77;;
12383;SDS011;6256;63.808;20.336;2023-09-12T07:25:36;17.00;;;9.00;;
12383;SDS011;6256;63.808;20.336;2023-09-12T07:28:04;20.20;;;10.23;;
12383;SDS011;6256;63.808;20.336;2023-09-12T07:30:29;14.13;;;9.27;;
12383;SDS011;6256;63.808;20.336;2023-09-12T07:32:55;16.65;;;9.57;;
12383;SDS011;6256;63.808;20.336;2023-09-12T07:35:21;15.05;;;10.00;;
12383;SDS011;6256;63.808;20.336;2023-09-12T07:37:49;16.38;;;9.63;;
12383;SDS011;6256;63.808;20.336;2023-09-12T07:40:15;16.15;;;10.52;;
12383;SDS011;6256;63.808;20.336;2023-09-12T07:42:40;17.95;;;10.02;;
12383;SDS011;6256;63.808;20.336;2023-09-12T07:45:06;14.00;;;9.05;;
12383;SDS011;6256;63.808;20.336;2023-09-12T07:47:33;15.77;;;8.98;;
12383;SDS011;6256;63.808;20.336;2023-09-12T07:49:59;18.42;;;9.27;;
12383;SDS011;6256;63.808;20.336;2023-09-12T07:52:28;14.35;;;9.02;;
12383;SDS011;6256;63.808;20.336;2023-09-12T07:55:00;14.45;;;9.68;;
12383;SDS011;6256;63.808;20.336;2023-09-12T07:57:27;13.77;;;8.65;;
12383;SDS011;6256;63.808;20.336;2023-09-12T07:59:56;16.15;;;9.32;;
12383;SDS011;6256;63.808;20.336;2023-09-12T08:02:22;11.77;;;8.02;;
12383;SDS011;6256;63.808;20.336;2023-09-12T08:04:48;15.10;;;8.68;;
12383;SDS011;6256;63.808;20.336;2023-09-12T08:07:21;15.05;;;9.70;;
12383;SDS011;6256;63.808;20.336;2023-09-12T08:09:53;15.50;;;9.02;;
12383;SDS011;6256;63.808;20.336;2023-09-12T08:12:21;16.20;;;9.02;;
12383;SDS011;6256;63.808;20.336;2023-09-12T08:14:48;12.65;;;7.90;;
12383;SDS011;6256;63.808;20.336;2023-09-12T08:17:14;17.77;;;9.68;;
12383;SDS011;6256;63.808;20.336;2023-09-12T08:19:40;13.07;;;8.35;;
12383;SDS011;6256;63.808;20.336;2023-09-12T08:22:07;17.58;;;9.73;;
12383;SDS011;6256;63.808;20.336;2023-09-12T08:24:34;15.05;;;9.38;;
12383;SDS011;6256;63.808;20.336;2023-09-12T08:27:04;17.40;;;9.07;;
12383;SDS011;6256;63.808;20.336;2023-09-12T08:29:31;14.45;;;8.70;;
12383;SDS011;6256;63.808;20.336;2023-09-12T08:32:01;20.25;;;9.35;;
12383;SDS011;6256;63.808;20.336;2023-09-12T08:34:27;15.68;;;9.70;;
12383;SDS011;6256;63.808;20.336;2023-09-12T08:36:53;17.02;;;8.82;;
12383;SDS011;6256;63.808;20.336;2023-09-12T08:39:25;18.40;;;8.88;;
12383;SDS011;6256;63.808;20.336;2023-09-12T08:41:52;16.70;;;9.60;;
12383;SDS011;6256;63.808;20.336;2023-09-12T08:44:19;15.90;;;8.45;;
12383;SDS011;6256;63.808;20.336;2023-09-12T08:46:45;16.23;;;9.18;;
12383;SDS011;6256;63.808;20.336;2023-09-12T08:49:12;14.13;;;9.25;;
12383;SDS011;6256;63.808;20.336;2023-09-12T08:51:38;13.38;;;8.40;;
12383;SDS011;6256;63.808;20.336;2023-09-12T08:54:05;17.00;;;9.45;;
12383;SDS011;6256;63.808;20.336;2023-09-12T08:56:32;19.23;;;9.23;;
12383;SDS011;6256;63.808;20.336;2023-09-12T08:59:00;15.40;;;9.27;;
12383;SDS011;6256;63.808;20.336;2023-09-12T09:01:28;16.08;;;9.30;;
12383;SDS011;6256;63.808;20.336;2023-09-12T09:03:55;14.52;;;8.90;;
12383;SDS011;6256;63.808;20.336;2023-09-12T09:06:21;16.27;;;8.32;;
12383;SDS011;6256;63.808;20.336;2023-09-12T09:08:48;17.35;;;8.38;;
12383;SDS011;6256;63.808;20.336;2023-09-12T09:11:17;11.93;;;8.75;;
12383;SDS011;6256;63.808;20.336;2023-09-12T09:13:43;15.30;;;8.07;;
12383;SDS011;6256;63.808;20.336;2023-09-12T09:16:09;14.18;;;8.85;;
12383;SDS011;6256;63.808;20.336;2023-09-12T09:21:30;15.23;;;9.02;;
12383;SDS011;6256;63.808;20.336;2023-09-12T09:24:16;14.68;;;8.88;;
12383;SDS011;6256;63.808;20.336;2023-09-12T09:26:49;14.65;;;9.02;;
12383;SDS011;6256;63.808;20.336;2023-09-12T09:29:17;17.30;;;8.18;;
12383;SDS011;6256;63.808;20.336;2023-09-12T09:31:45;13.88;;;8.30;;
12383;SDS011;6256;63.808;20.336;2023-09-12T09:34:15;13.98;;;8.60;;
12383;SDS011;6256;63.808;20.336;2023-09-12T09:36:42;11.68;;;8.05;;
12383;SDS011;6256;63.808;20.336;2023-09-12T09:39:10;12.15;;;9.00;;
12383;SDS011;6256;63.808;20.336;2023-09-12T09:41:37;14.95;;;8.27;;
12383;SDS011;6256;63.808;20.336;2023-09-12T09:44:07;11.68;;;8.65;;
12383;SDS011;6256;63.808;20.336;2023-09-12T09:46:34;14.55;;;8.73;;
12383;SDS011;6256;63.808;20.336;2023-09-12T09:49:01;11.55;;;8.07;;
12383;SDS011;6256;63.808;20.336;2023-09-12T09:51:27;15.48;;;8.52;;
12383;SDS011;6256;63.808;20.336;2023-09-12T09:53:56;16.40;;;9.38;;
12383;SDS011;6256;63.808;20.336;2023-09-12T09:56:23;18.83;;;9.23;;
12383;SDS011;6256;63.808;20.336;2023-09-12T09:58:54;12.18;;;6.47;;
12383;SDS011;6256;63.808;20.336;2023-09-12T10:01:21;9.88;;;6.03;;
12383;SDS011;6256;63.808;20.336;2023-09-12T10:03:58;12.15;;;5.35;;
12383;SDS011;6256;63.808;20.336;2023-09-12T10:06:25;8.27;;;4.57;;
12383;SDS011;6256;63.808;20.336;2023-09-12T10:08:53;4.47;;;2.92;;
12383;SDS011;6256;63.808;20.336;2023-09-12T10:11:23;7.25;;;3.85;;
12383;SDS011;6256;63.808;20.336;2023-09-12T10:13:54;4.30;;;3.28;;
12383;SDS011;6256;63.808;20.336;2023-09-12T10:16:24;6.15;;;2.95;;
12383;SDS011;6256;63.808;20.336;2023-09-12T10:19:12;4.65;;;3.08;;
12383;SDS011;6256;63.808;20.336;2023-09-12T10:24:34;1.98;;;1.52;;
12383;SDS011;6256;63.808;20.336;2023-09-12T10:27:01;2.92;;;2.10;;
12383;SDS011;6256;63.808;20.336;2023-09-12T10:29:29;2.90;;;2.22;;
12383;SDS011;6256;63.808;20.336;2023-09-12T10:31:55;2.47;;;1.75;;
12383;SDS011;6256;63.808;20.336;2023-09-12T10:34:21;2.33;;;1.60;;
12383;SDS011;6256;63.808;20.336;2023-09-12T10:36:50;2.08;;;1.35;;
12383;SDS011;6256;63.808;20.336;2023-09-12T10:39:18;2.78;;;1.40;;
12383;SDS011;6256;63.808;20.336;2023-09-12T10:41:45;2.03;;;0.98;;
12383;SDS011;6256;63.808;20.336;2023-09-12T10:44:15;1.48;;;1.38;;
12383;SDS011;6256;63.808;20.336;2023-09-12T10:46:42;2.60;;;0.93;;
12383;SDS011;6256;63.808;20.336;2023-09-12T10:49:10;1.40;;;0.80;;
12383;SDS011;6256;63.808;20.336;2023-09-12T10:51:38;0.80;;;0.80;;
12383;SDS011;6256;63.808;20.336;2023-09-12T10:54:08;1.40;;;0.90;;
12383;SDS011;6256;63.808;20.336;2023-09-12T10:56:37;1.58;;;0.82;;
12383;SDS011;6256;63.808;20.336;2023-09-12T11:01:31;1.02;;;0.93;;
12383;SDS011;6256;63.808;20.336;2023-09-12T11:03:58;0.75;;;0.73;;
12383;SDS011;6256;63.808;20.336;2023-09-12T11:06:50;1.98;;;0.77;;
12383;SDS011;6256;63.808;20.336;2023-09-12T11:11:58;0.98;;;0.70;;
12383;SDS011;6256;63.808;20.336;2023-09-12T11:14:28;0.75;;;0.70;;
12383;SDS011;6256;63.808;20.336;2023-09-12T11:17:12;0.93;;;0.70;;
12383;SDS011;6256;63.808;20.336;2023-09-12T11:19:49;1.30;;;0.57;;
12383;SDS011;6256;63.808;20.336;2023-09-12T11:22:22;0.70;;;0.60;;
12383;SDS011;6256;63.808;20.336;2023-09-12T11:25:03;1.23;;;0.70;;
12383;SDS011;6256;63.808;20.336;2023-09-12T11:28:01;0.60;;;0.60;;
12383;SDS011;6256;63.808;20.336;2023-09-12T11:30:29;1.27;;;0.52;;
12383;SDS011;6256;63.808;20.336;2023-09-12T11:32:56;0.77;;;0.60;;
12383;SDS011;6256;63.808;20.336;2023-09-12T11:35:25;2.50;;;0.80;;
12383;SDS011;6256;63.808;20.336;2023-09-12T11:37:55;1.63;;;1.02;;
12383;SDS011;6256;63.808;20.336;2023-09-12T11:40:23;1.77;;;0.82;;
12383;SDS011;6256;63.808;20.336;2023-09-12T11:43:23;2.45;;;0.90;;
12383;SDS011;6256;63.808;20.336;2023-09-12T11:45:50;0.63;;;0.63;;
12383;SDS011;6256;63.808;20.336;2023-09-12T11:48:17;0.73;;;0.60;;
12383;SDS011;6256;63.808;20.336;2023-09-12T11:50:46;1.50;;;0.73;;
12383;SDS011;6256;63.808;20.336;2023-09-12T11:53:21;1.63;;;0.98;;
12383;SDS011;6256;63.808;20.336;2023-09-12T11:55:51;1.27;;;0.82;;
12383;SDS011;6256;63.808;20.336;2023-09-12T11:58:19;1.02;;;0.90;;
12383;SDS011;6256;63.808;20.336;2023-09-12T12:00:50;2.10;;;1.00;;
12383;SDS011;6256;63.808;20.336;2023-09-12T12:03:20;1.08;;;0.68;;
12383;SDS011;6256;63.808;20.336;2023-09-12T12:05:46;0.70;;;0.70;;
12383;SDS011;6256;63.808;20.336;2023-09-12T12:08:13;0.50;;;0.50;;
12383;SDS011;6256;63.808;20.336;2023-09-12T12:10:40;0.80;;;0.80;;
12383;SDS011;6256;63.808;20.336;2023-09-12T12:13:10;1.00;;;0.90;;
12383;SDS011;6256;63.808;20.336;2023-09-12T12:15:37;0.63;;;0.63;;
12383;SDS011;6256;63.808;20.336;2023-09-12T12:18:03;1.10;;;0.70;;
12383;SDS011;6256;63.808;20.336;2023-09-12T12:20:29;0.90;;;0.68;;
12383;SDS011;6256;63.808;20.336;2023-09-12T12:22:55;1.17;;;0.60;;
12383;SDS011;6256;63.808;20.336;2023-09-12T12:25:21;1.15;;;0.70;;
12383;SDS011;6256;63.808;20.336;2023-09-12T12:27:47;0.88;;;0.77;;
12383;SDS011;6256;63.808;20.336;2023-09-12T12:30:13;1.33;;;0.77;;
12383;SDS011;6256;63.808;20.336;2023-09-12T12:32:39;1.75;;;0.65;;
12383;SDS011;6256;63.808;20.336;2023-09-12T12:35:21;0.85;;;0.68;;
12383;SDS011;6256;63.808;20.336;2023-09-12T12:37:48;1.00;;;0.80;;
12383;SDS011;6256;63.808;20.336;2023-09-12T12:40:20;1.75;;;0.70;;
12383;SDS011;6256;63.808;20.336;2023-09-12T12:42:46;1.25;;;0.80;;
12383;SDS011;6256;63.808;20.336;2023-09-12T12:45:16;0.93;;;0.50;;
12383;SDS011;6256;63.808;20.336;2023-09-12T12:47:44;0.57;;;0.50;;
12383;SDS011;6256;63.808;20.336;2023-09-12T12:50:13;1.52;;;1.00;;
12383;SDS011;6256;63.808;20.336;2023-09-12T12:52:40;1.08;;;0.60;;
12383;SDS011;6256;63.808;20.336;2023-09-12T12:55:08;1.33;;;0.80;;
12383;SDS011;6256;63.808;20.336;2023-09-12T12:57:39;1.35;;;0.75;;
12383;SDS011;6256;63.808;20.336;2023-09-12T13:00:08;1.48;;;0.50;;
12383;SDS011;6256;63.808;20.336;2023-09-12T13:02:38;0.70;;;0.70;;
12383;SDS011;6256;63.808;20.336;2023-09-12T13:05:06;4.55;;;1.27;;
12383;SDS011;6256;63.808;20.336;2023-09-12T13:07:44;0.52;;;0.52;;
12383;SDS011;6256;63.808;20.336;2023-09-12T13:10:09;2.13;;;0.70;;
12383;SDS011;6256;63.808;20.336;2023-09-12T13:12:35;1.98;;;0.65;;
12383;SDS011;6256;63.808;20.336;2023-09-12T13:15:02;1.63;;;0.73;;
12383;SDS011;6256;63.808;20.336;2023-09-12T13:17:31;1.90;;;0.77;;
12383;SDS011;6256;63.808;20.336;2023-09-12T13:19:57;1.30;;;0.57;;
12383;SDS011;6256;63.808;20.336;2023-09-12T13:22:23;4.25;;;0.85;;
12383;SDS011;6256;63.808;20.336;2023-09-12T13:24:49;1.38;;;0.70;;
12383;SDS011;6256;63.808;20.336;2023-09-12T13:27:15;0.90;;;0.80;;
12383;SDS011;6256;63.808;20.336;2023-09-12T13:29:40;0.90;;;0.60;;
12383;SDS011;6256;63.808;20.336;2023-09-12T13:32:06;1.88;;;0.60;;
12383;SDS011;6256;63.808;20.336;2023-09-12T13:34:32;0.90;;;0.70;;
12383;SDS011;6256;63.808;20.336;2023-09-12T13:36:57;1.00;;;0.70;;
12383;SDS011;6256;63.808;20.336;2023-09-12T13:39:24;1.15;;;0.73;;
12383;SDS011;6256;63.808;20.336;2023-09-12T13:41:52;0.65;;;0.60;;
12383;SDS011;6256;63.808;20.336;2023-09-12T13:44:21;0.63;;;0.60;;
12383;SDS011;6256;63.808;20.336;2023-09-12T13:46:47;1.08;;;0.63;;
12383;SDS011;6256;63.808;20.336;2023-09-12T13:49:12;0.68;;;0.50;;
12383;SDS011;6256;63.808;20.336;2023-09-12T13:51:38;0.82;;;0.80;;
12383;SDS011;6256;63.808;20.336;2023-09-12T13:54:04;2.80;;;0.80;;
12383;SDS011;6256;63.808;20.336;2023-09-12T13:56:31;0.75;;;0.75;;
12383;SDS011;6256;63.808;20.336;2023-09-12T13:58:57;1.15;;;1.05;;
12383;SDS011;6256;63.808;20.336;2023-09-12T14:01:23;0.47;;;0.47;;
12383;SDS011;6256;63.808;20.336;2023-09-12T14:03:48;0.70;;;0.70;;
12383;SDS011;6256;63.808;20.336;2023-09-12T14:06:14;1.38;;;0.98;;
12383;SDS011;6256;63.808;20.336;2023-09-12T14:08:40;1.10;;;0.85;;
12383;SDS011;6256;63.808;20.336;2023-09-12T14:11:05;1.65;;;0.80;;
12383;SDS011;6256;63.808;20.336;2023-09-12T14:13:31;1.13;;;0.80;;
12383;SDS011;6256;63.808;20.336;2023-09-12T14:15:57;1.45;;;1.10;;
12383;SDS011;6256;63.808;20.336;2023-09-12T14:18:24;1.75;;;0.70;;
12383;SDS011;6256;63.808;20.336;2023-09-12T14:20:50;0.70;;;0.70;;
12383;SDS011;6256;63.808;20.336;2023-09-12T14:23:16;1.58;;;1.00;;
12383;SDS011;6256;63.808;20.336;2023-09-12T14:25:42;2.47;;;0.90;;
12383;SDS011;6256;63.808;20.336;2023-09-12T14:28:07;0.77;;;0.70;;
12383;SDS011;6256;63.808;20.336;2023-09-12T14:30:33;0.90;;;0.70;;
12383;SDS011;6256;63.808;20.336;2023-09-12T14:33:01;1.60;;;0.75;;
12383;SDS011;6256;63.808;20.336;2023-09-12T14:35:29;0.77;;;0.77;;
12383;SDS011;6256;63.808;20.336;2023-09-12T14:37:55;0.65;;;0.65;;
12383;SDS011;6256;63.808;20.336;2023-09-12T14:40:21;0.82;;;0.77;;
12383;SDS011;6256;63.808;20.336;2023-09-12T14:42:46;1.33;;;0.77;;
12383;SDS011;6256;63.808;20.336;2023-09-12T14:45:13;0.70;;;0.70;;
12383;SDS011;6256;63.808;20.336;2023-09-12T14:47:39;0.65;;;0.65;;
12383;SDS011;6256;63.808;20.336;2023-09-12T14:50:05;1.25;;;0.73;;
12383;SDS011;6256;63.808;20.336;2023-09-12T14:52:31;0.90;;;0.80;;
12383;SDS011;6256;63.808;20.336;2023-09-12T14:54:58;1.52;;;0.73;;